CDT,Max TemperatureF,Mean TemperatureF,Min TemperatureF,Max Dew PointF,MeanDew PointF,Min DewpointF,Max Humidity, Mean Humidity, Min Humidity, Max Sea Level PressureIn, Mean Sea Level PressureIn, Min Sea Level PressureIn, Max VisibilityMiles, Mean VisibilityMiles, Min VisibilityMiles, Max Wind SpeedMPH, Mean Wind SpeedMPH, Max Gust SpeedMPH,PrecipitationIn, CloudCover, Events, WindDirDegrees
2013-7-1,82,64,46,63,51,45,100,62,28,30.25,30.21,30.17,10,9,1,6,1,,0.00,0,,110
2013-7-2,82,66,50,61,52,46,94,62,30,30.20,30.15,30.08,10,10,3,7,1,,0.00,0,,165
2013-7-3,84,70,55,64,58,54,94,70,37,30.08,30.02,29.94,10,10,7,10,2,,0.00,1,,201
2013-7-4,84,70,57,63,57,54,88,60,39,29.94,29.87,29.81,10,10,5,14,6,22,0.00,0,,182
2013-7-5,84,75,66,66,61,55,94,61,50,29.81,29.78,29.76,10,10,7,20,9,26,0.00,0,Thunderstorm,193
2013-7-6,77,68,59,70,64,57,94,86,73,29.88,29.85,29.81,10,7,0,10,1,,0.00,3,Fog-Rain,186
2013-7-7,82,70,59,70,65,57,100,83,62,29.95,29.88,29.85,10,6,0,6,0,,0.00,4,Fog-Thunderstorm,114
2013-7-8,84,68,51,64,59,52,100,72,42,30.02,29.98,29.95,10,9,1,8,1,,0.00,0,,210
2013-7-9,73,66,57,68,62,54,100,85,68,29.98,29.88,29.81,10,9,0,14,1,20,0.00,2,Fog-Rain,315
2013-7-10,75,64,53,61,54,52,94,77,47,30.06,30.01,29.94,10,8,0,14,2,24,0.00,2,Fog-Rain-Thunderstorm,302
2013-7-11,82,64,46,61,55,45,100,69,42,30.10,30.03,29.92,10,8,0,14,3,18,0.00,1,Fog,187
2013-7-12,86,77,68,68,63,57,94,63,51,29.93,29.87,29.80,10,10,2,21,9,29,0.00,1,Rain-Thunderstorm,177
2013-7-13,84,76,68,72,68,66,94,80,62,30.05,29.98,29.88,10,9,2,12,3,16,0.00,4,Rain-Thunderstorm,162
2013-7-14,71,70,66,66,65,61,94,85,73,30.22,30.13,30.05,10,9,4,9,4,,0.00,7,Rain-Thunderstorm,182
2013-7-15,75,70,66,70,66,64,94,88,73,30.25,30.22,30.17,10,7,2,8,2,,0.00,5,Rain,169
2013-7-16,87,76,66,72,67,64,94,74,49,30.17,30.13,30.11,10,8,3,17,6,24,0.00,0,,203
2013-7-17,82,73,64,70,65,63,94,79,61,30.23,30.18,30.12,10,9,2,8,1,,0.00,2,Rain-Thunderstorm,17
2013-7-18,87,76,64,73,68,63,94,81,58,30.12,29.85,29.66,10,9,1,21,4,30,0.00,2,Rain-Thunderstorm,205
2013-7-19,78,68,55,68,58,46,94,69,39,29.90,29.79,29.66,10,9,0,14,4,22,0.00,3,Fog-Rain,282
2013-7-20,69,56,44,52,47,43,94,69,43,30.04,29.99,29.90,10,10,1,9,2,,0.00,1,,26
2013-7-21,75,58,42,59,51,41,100,71,50,30.01,29.92,29.77,10,10,7,12,3,17,0.00,2,,154
2013-7-22,71,63,53,64,56,52,94,73,56,29.88,29.73,29.61,10,10,10,15,9,24,0.00,4,Rain,259
2013-7-23,71,58,46,55,49,45,94,73,41,30.07,30.02,29.90,10,10,4,10,2,,0.00,1,,22
2013-7-24,75,60,44,61,51,43,100,74,44,30.07,30.01,29.92,10,10,2,12,2,16,0.00,1,,223
2013-7-25,75,60,46,61,54,46,100,86,53,29.94,29.91,29.87,10,6,0,14,1,18,0.00,5,Fog-Rain-Thunderstorm,230
2013-7-26,57,52,48,54,49,45,100,85,72,30.17,30.05,29.88,10,9,2,15,5,25,0.00,7,Rain-Thunderstorm,2
2013-7-27,59,52,46,50,45,43,88,79,63,30.13,30.04,29.99,10,10,10,18,6,30,0.00,5,Rain,345
2013-7-28,71,56,42,54,47,39,94,72,46,30.07,30.02,30.01,10,10,1,13,3,18,0.00,2,,10
2013-7-29,75,58,42,55,51,41,100,73,46,30.11,30.08,30.06,10,10,1,10,2,,0.00,1,,208
2013-7-30,75,63,51,63,58,48,94,83,61,30.08,30.05,30.03,10,10,7,12,2,16,0.00,4,Rain,214
2013-7-31,71,61,51,57,53,48,94,72,43,30.03,30.01,29.98,10,9,0,14,3,23,0.00,2,Fog,267